sensor_id;sensor_type;location;lat;lon;timestamp;P1;durP1;ratioP1;P2;durP2;ratioP2
31866;SDS011;18431;45.580;-122.680;2022-08-19T00:00:49;0.30;;;0.30;;
31866;SDS011;18431;45.580;-122.680;2022-08-19T00:03:19;1.07;;;0.50;;
31866;SDS011;18431;45.580;-122.680;2022-08-19T00:05:50;0.50;;;0.50;;
31866;SDS011;18431;45.580;-122.680;2022-08-19T00:08:22;0.35;;;0.35;;
31866;SDS011;18431;45.580;-122.680;2022-08-19T00:10:51;0.45;;;0.45;;
31866;SDS011;18431;45.580;-122.680;2022-08-19T00:13:21;0.50;;;0.50;;
31866;SDS011;18431;45.580;-122.680;2022-08-19T00:15:53;0.42;;;0.42;;
31866;SDS011;18431;45.580;-122.680;2022-08-19T00:18:25;0.70;;;0.60;;
31866;SDS011;18431;45.580;-122.680;2022-08-19T00:20:55;0.47;;;0.47;;
31866;SDS011;18431;45.580;-122.680;2022-08-19T00:23:26;0.50;;;0.50;;
31866;SDS011;18431;45.580;-122.680;2022-08-19T00:25:57;0.33;;;0.33;;
31866;SDS011;18431;45.580;-122.680;2022-08-19T00:28:27;0.40;;;0.40;;
31866;SDS011;18431;45.580;-122.680;2022-08-19T00:30:57;0.40;;;0.40;;
31866;SDS011;18431;45.580;-122.680;2022-08-19T00:33:29;0.40;;;0.40;;
31866;SDS011;18431;45.580;-122.680;2022-08-19T00:36:03;0.37;;;0.37;;
31866;SDS011;18431;45.580;-122.680;2022-08-19T00:38:35;0.50;;;0.50;;
31866;SDS011;18431;45.580;-122.680;2022-08-19T00:41:07;0.40;;;0.40;;
31866;SDS011;18431;45.580;-122.680;2022-08-19T00:43:56;0.40;;;0.40;;
31866;SDS011;18431;45.580;-122.680;2022-08-19T00:46:37;0.50;;;0.50;;
31866;SDS011;18431;45.580;-122.680;2022-08-19T00:49:23;0.40;;;0.40;;
31866;SDS011;18431;45.580;-122.680;2022-08-19T00:51:53;0.33;;;0.33;;
31866;SDS011;18431;45.580;-122.680;2022-08-19T00:54:25;0.60;;;0.30;;
31866;SDS011;18431;45.580;-122.680;2022-08-19T00:56:58;0.40;;;0.40;;
31866;SDS011;18431;45.580;-122.680;2022-08-19T00:59:30;0.50;;;0.50;;
31866;SDS011;18431;45.580;-122.680;2022-08-19T01:02:00;0.40;;;0.40;;
31866;SDS011;18431;45.580;-122.680;2022-08-19T01:04:30;0.40;;;0.40;;
31866;SDS011;18431;45.580;-122.680;2022-08-19T01:07:03;0.40;;;0.40;;
31866;SDS011;18431;45.580;-122.680;2022-08-19T01:09:34;0.50;;;0.50;;
31866;SDS011;18431;45.580;-122.680;2022-08-19T01:12:04;0.37;;;0.37;;
31866;SDS011;18431;45.580;-122.680;2022-08-19T01:14:34;0.50;;;0.50;;
31866;SDS011;18431;45.580;-122.680;2022-08-19T01:17:06;0.40;;;0.40;;
31866;SDS011;18431;45.580;-122.680;2022-08-19T01:19:39;0.60;;;0.60;;
31866;SDS011;18431;45.580;-122.680;2022-08-19T01:25:02;0.50;;;0.50;;
31866;SDS011;18431;45.580;-122.680;2022-08-19T01:27:37;0.50;;;0.50;;
31866;SDS011;18431;45.580;-122.680;2022-08-19T01:30:09;0.50;;;0.50;;
31866;SDS011;18431;45.580;-122.680;2022-08-19T01:32:40;0.40;;;0.40;;
31866;SDS011;18431;45.580;-122.680;2022-08-19T01:35:11;0.50;;;0.50;;
31866;SDS011;18431;45.580;-122.680;2022-08-19T01:37:42;0.42;;;0.42;;
31866;SDS011;18431;45.580;-122.680;2022-08-19T01:40:12;0.40;;;0.40;;
31866;SDS011;18431;45.580;-122.680;2022-08-19T01:42:43;0.93;;;0.55;;
31866;SDS011;18431;45.580;-122.680;2022-08-19T01:45:13;0.50;;;0.50;;
31866;SDS011;18431;45.580;-122.680;2022-08-19T01:47:43;0.57;;;0.57;;
31866;SDS011;18431;45.580;-122.680;2022-08-19T01:50:15;0.33;;;0.30;;
31866;SDS011;18431;45.580;-122.680;2022-08-19T01:52:45;0.78;;;0.40;;
31866;SDS011;18431;45.580;-122.680;2022-08-19T01:55:16;0.80;;;0.60;;
31866;SDS011;18431;45.580;-122.680;2022-08-19T01:57:49;0.40;;;0.40;;
31866;SDS011;18431;45.580;-122.680;2022-08-19T02:00:21;0.60;;;0.53;;
31866;SDS011;18431;45.580;-122.680;2022-08-19T02:02:52;0.40;;;0.40;;
31866;SDS011;18431;45.580;-122.680;2022-08-19T02:05:22;0.40;;;0.40;;
31866;SDS011;18431;45.580;-122.680;2022-08-19T02:07:52;0.60;;;0.57;;
31866;SDS011;18431;45.580;-122.680;2022-08-19T02:10:22;0.40;;;0.40;;
31866;SDS011;18431;45.580;-122.680;2022-08-19T02:12:53;0.42;;;0.42;;
31866;SDS011;18431;45.580;-122.680;2022-08-19T02:15:23;0.40;;;0.40;;
31866;SDS011;18431;45.580;-122.680;2022-08-19T02:17:53;0.50;;;0.50;;
31866;SDS011;18431;45.580;-122.680;2022-08-19T02:20:23;0.45;;;0.40;;
31866;SDS011;18431;45.580;-122.680;2022-08-19T02:22:53;0.40;;;0.40;;
31866;SDS011;18431;45.580;-122.680;2022-08-19T02:25:23;0.50;;;0.40;;
31866;SDS011;18431;45.580;-122.680;2022-08-19T02:27:53;0.45;;;0.45;;
31866;SDS011;18431;45.580;-122.680;2022-08-19T02:30:23;0.57;;;0.45;;
31866;SDS011;18431;45.580;-122.680;2022-08-19T02:32:53;0.50;;;0.50;;
31866;SDS011;18431;45.580;-122.680;2022-08-19T02:35:24;0.88;;;0.70;;
31866;SDS011;18431;45.580;-122.680;2022-08-19T02:37:54;0.72;;;0.50;;
31866;SDS011;18431;45.580;-122.680;2022-08-19T02:40:47;1.30;;;0.70;;
31866;SDS011;18431;45.580;-122.680;2022-08-19T02:43:22;0.95;;;0.80;;
31866;SDS011;18431;45.580;-122.680;2022-08-19T02:45:52;0.90;;;0.90;;
31866;SDS011;18431;45.580;-122.680;2022-08-19T02:48:23;1.75;;;1.17;;
31866;SDS011;18431;45.580;-122.680;2022-08-19T02:50:54;0.85;;;0.85;;
31866;SDS011;18431;45.580;-122.680;2022-08-19T02:53:24;1.10;;;1.00;;
31866;SDS011;18431;45.580;-122.680;2022-08-19T02:55:55;1.85;;;1.00;;
31866;SDS011;18431;45.580;-122.680;2022-08-19T02:58:25;1.12;;;1.02;;
31866;SDS011;18431;45.580;-122.680;2022-08-19T03:00:56;1.35;;;1.25;;
31866;SDS011;18431;45.580;-122.680;2022-08-19T03:03:26;1.30;;;1.20;;
31866;SDS011;18431;45.580;-122.680;2022-08-19T03:06:07;1.47;;;1.20;;
31866;SDS011;18431;45.580;-122.680;2022-08-19T03:08:44;1.60;;;1.50;;
31866;SDS011;18431;45.580;-122.680;2022-08-19T03:11:19;1.77;;;1.40;;
31866;SDS011;18431;45.580;-122.680;2022-08-19T03:13:48;2.25;;;1.47;;
31866;SDS011;18431;45.580;-122.680;2022-08-19T03:16:21;1.60;;;1.50;;
31866;SDS011;18431;45.580;-122.680;2022-08-19T03:18:51;1.80;;;1.50;;
31866;SDS011;18431;45.580;-122.680;2022-08-19T03:21:23;2.25;;;2.05;;
31866;SDS011;18431;45.580;-122.680;2022-08-19T03:23:54;1.80;;;1.70;;
31866;SDS011;18431;45.580;-122.680;2022-08-19T03:26:24;1.90;;;1.80;;
31866;SDS011;18431;45.580;-122.680;2022-08-19T03:28:55;2.10;;;1.80;;
31866;SDS011;18431;45.580;-122.680;2022-08-19T03:31:26;2.30;;;2.10;;
31866;SDS011;18431;45.580;-122.680;2022-08-19T03:33:56;1.77;;;1.67;;
31866;SDS011;18431;45.580;-122.680;2022-08-19T03:36:26;2.02;;;1.92;;
31866;SDS011;18431;45.580;-122.680;2022-08-19T03:38:58;1.87;;;1.77;;
31866;SDS011;18431;45.580;-122.680;2022-08-19T03:41:33;1.75;;;1.65;;
31866;SDS011;18431;45.580;-122.680;2022-08-19T03:44:04;1.85;;;1.65;;
31866;SDS011;18431;45.580;-122.680;2022-08-19T03:46:35;2.08;;;1.90;;
31866;SDS011;18431;45.580;-122.680;2022-08-19T03:49:05;2.42;;;2.22;;
31866;SDS011;18431;45.580;-122.680;2022-08-19T03:51:36;3.00;;;1.90;;
31866;SDS011;18431;45.580;-122.680;2022-08-19T03:54:08;2.00;;;1.90;;
31866;SDS011;18431;45.580;-122.680;2022-08-19T03:56:40;1.85;;;1.75;;
31866;SDS011;18431;45.580;-122.680;2022-08-19T03:59:13;2.27;;;2.10;;
31866;SDS011;18431;45.580;-122.680;2022-08-19T04:01:44;2.17;;;1.98;;
31866;SDS011;18431;45.580;-122.680;2022-08-19T04:04:14;2.08;;;1.98;;
31866;SDS011;18431;45.580;-122.680;2022-08-19T04:06:44;2.22;;;2.12;;
31866;SDS011;18431;45.580;-122.680;2022-08-19T04:09:14;2.22;;;1.95;;
31866;SDS011;18431;45.580;-122.680;2022-08-19T04:11:49;2.35;;;2.15;;
31866;SDS011;18431;45.580;-122.680;2022-08-19T04:14:18;2.22;;;2.05;;
31866;SDS011;18431;45.580;-122.680;2022-08-19T04:16:50;2.37;;;2.22;;
31866;SDS011;18431;45.580;-122.680;2022-08-19T04:19:21;3.00;;;2.52;;
31866;SDS011;18431;45.580;-122.680;2022-08-19T04:21:54;2.50;;;2.30;;
31866;SDS011;18431;45.580;-122.680;2022-08-19T04:24:25;3.65;;;2.37;;
31866;SDS011;18431;45.580;-122.680;2022-08-19T04:26:54;2.60;;;2.40;;
31866;SDS011;18431;45.580;-122.680;2022-08-19T04:29:24;2.55;;;2.30;;
31866;SDS011;18431;45.580;-122.680;2022-08-19T04:31:55;2.67;;;2.47;;
31866;SDS011;18431;45.580;-122.680;2022-08-19T04:34:25;2.70;;;2.17;;
31866;SDS011;18431;45.580;-122.680;2022-08-19T04:36:57;3.00;;;2.60;;
31866;SDS011;18431;45.580;-122.680;2022-08-19T04:39:28;2.90;;;2.70;;
31866;SDS011;18431;45.580;-122.680;2022-08-19T04:42:16;2.62;;;2.42;;
31866;SDS011;18431;45.580;-122.680;2022-08-19T04:45:08;3.08;;;2.45;;
31866;SDS011;18431;45.580;-122.680;2022-08-19T04:47:42;2.65;;;2.45;;
31866;SDS011;18431;45.580;-122.680;2022-08-19T04:50:12;3.35;;;2.40;;
31866;SDS011;18431;45.580;-122.680;2022-08-19T04:52:42;3.47;;;2.45;;
31866;SDS011;18431;45.580;-122.680;2022-08-19T04:55:12;2.85;;;2.30;;
31866;SDS011;18431;45.580;-122.680;2022-08-19T04:57:42;2.85;;;2.40;;
31866;SDS011;18431;45.580;-122.680;2022-08-19T05:00:12;2.30;;;2.10;;
31866;SDS011;18431;45.580;-122.680;2022-08-19T05:02:42;2.47;;;2.02;;
31866;SDS011;18431;45.580;-122.680;2022-08-19T05:05:14;2.58;;;2.37;;
31866;SDS011;18431;45.580;-122.680;2022-08-19T05:07:43;2.35;;;2.15;;
31866;SDS011;18431;45.580;-122.680;2022-08-19T05:10:15;2.75;;;2.55;;
31866;SDS011;18431;45.580;-122.680;2022-08-19T05:12:45;2.50;;;2.30;;
31866;SDS011;18431;45.580;-122.680;2022-08-19T05:15:15;2.80;;;2.33;;
31866;SDS011;18431;45.580;-122.680;2022-08-19T05:17:45;2.67;;;2.27;;
31866;SDS011;18431;45.580;-122.680;2022-08-19T05:20:17;2.65;;;2.30;;
31866;SDS011;18431;45.580;-122.680;2022-08-19T05:23:04;2.62;;;2.42;;
31866;SDS011;18431;45.580;-122.680;2022-08-19T05:25:34;2.67;;;2.40;;
31866;SDS011;18431;45.580;-122.680;2022-08-19T05:28:05;2.40;;;2.20;;
31866;SDS011;18431;45.580;-122.680;2022-08-19T05:30:35;2.62;;;2.37;;
31866;SDS011;18431;45.580;-122.680;2022-08-19T05:33:05;2.58;;;1.95;;
31866;SDS011;18431;45.580;-122.680;2022-08-19T05:35:37;2.30;;;2.10;;
31866;SDS011;18431;45.580;-122.680;2022-08-19T05:38:08;2.52;;;2.30;;
31866;SDS011;18431;45.580;-122.680;2022-08-19T05:40:38;2.33;;;2.12;;
31866;SDS011;18431;45.580;-122.680;2022-08-19T05:43:08;2.72;;;2.20;;
31866;SDS011;18431;45.580;-122.680;2022-08-19T05:45:39;2.77;;;2.20;;
31866;SDS011;18431;45.580;-122.680;2022-08-19T05:48:09;2.00;;;1.90;;
31866;SDS011;18431;45.580;-122.680;2022-08-19T05:50:41;2.33;;;2.10;;
31866;SDS011;18431;45.580;-122.680;2022-08-19T05:53:12;2.35;;;2.15;;
31866;SDS011;18431;45.580;-122.680;2022-08-19T05:55:43;3.33;;;2.30;;
31866;SDS011;18431;45.580;-122.680;2022-08-19T05:58:13;2.20;;;2.10;;
31866;SDS011;18431;45.580;-122.680;2022-08-19T06:00:43;3.72;;;2.15;;
31866;SDS011;18431;45.580;-122.680;2022-08-19T06:03:13;2.25;;;2.05;;
31866;SDS011;18431;45.580;-122.680;2022-08-19T06:05:43;2.08;;;1.90;;
31866;SDS011;18431;45.580;-122.680;2022-08-19T06:08:13;2.47;;;2.10;;
31866;SDS011;18431;45.580;-122.680;2022-08-19T06:10:44;2.05;;;1.95;;
31866;SDS011;18431;45.580;-122.680;2022-08-19T06:13:14;2.25;;;2.05;;
31866;SDS011;18431;45.580;-122.680;2022-08-19T06:15:44;2.20;;;2.00;;
31866;SDS011;18431;45.580;-122.680;2022-08-19T06:18:15;2.05;;;1.95;;
31866;SDS011;18431;45.580;-122.680;2022-08-19T06:20:45;1.92;;;1.82;;
31866;SDS011;18431;45.580;-122.680;2022-08-19T06:23:16;1.98;;;1.85;;
31866;SDS011;18431;45.580;-122.680;2022-08-19T06:25:47;2.12;;;1.98;;
31866;SDS011;18431;45.580;-122.680;2022-08-19T06:28:17;2.20;;;2.00;;
31866;SDS011;18431;45.580;-122.680;2022-08-19T06:30:47;1.80;;;1.70;;
31866;SDS011;18431;45.580;-122.680;2022-08-19T06:33:19;1.92;;;1.82;;
31866;SDS011;18431;45.580;-122.680;2022-08-19T06:35:48;2.05;;;1.95;;
31866;SDS011;18431;45.580;-122.680;2022-08-19T06:38:18;1.90;;;1.80;;
31866;SDS011;18431;45.580;-122.680;2022-08-19T06:40:49;1.80;;;1.70;;
31866;SDS011;18431;45.580;-122.680;2022-08-19T06:43:18;1.77;;;1.67;;
31866;SDS011;18431;45.580;-122.680;2022-08-19T06:45:50;1.90;;;1.80;;
31866;SDS011;18431;45.580;-122.680;2022-08-19T06:48:20;1.80;;;1.70;;
31866;SDS011;18431;45.580;-122.680;2022-08-19T06:53:41;1.80;;;1.70;;
31866;SDS011;18431;45.580;-122.680;2022-08-19T06:56:13;1.98;;;1.87;;
31866;SDS011;18431;45.580;-122.680;2022-08-19T06:58:43;1.70;;;1.60;;
31866;SDS011;18431;45.580;-122.680;2022-08-19T07:01:13;1.80;;;1.70;;
31866;SDS011;18431;45.580;-122.680;2022-08-19T07:03:43;1.98;;;1.72;;
31866;SDS011;18431;45.580;-122.680;2022-08-19T07:06:16;1.82;;;1.72;;
31866;SDS011;18431;45.580;-122.680;2022-08-19T07:08:47;1.75;;;1.65;;
31866;SDS011;18431;45.580;-122.680;2022-08-19T07:11:18;1.77;;;1.67;;
31866;SDS011;18431;45.580;-122.680;2022-08-19T07:14:08;1.70;;;1.60;;
31866;SDS011;18431;45.580;-122.680;2022-08-19T07:16:39;1.62;;;1.52;;
31866;SDS011;18431;45.580;-122.680;2022-08-19T07:19:09;1.50;;;1.40;;
31866;SDS011;18431;45.580;-122.680;2022-08-19T07:21:38;1.92;;;1.82;;
31866;SDS011;18431;45.580;-122.680;2022-08-19T07:24:10;1.67;;;1.57;;
31866;SDS011;18431;45.580;-122.680;2022-08-19T07:26:41;1.65;;;1.55;;
31866;SDS011;18431;45.580;-122.680;2022-08-19T07:29:11;1.80;;;1.70;;
31866;SDS011;18431;45.580;-122.680;2022-08-19T07:31:42;1.70;;;1.60;;
31866;SDS011;18431;45.580;-122.680;2022-08-19T07:34:12;2.37;;;1.45;;
31866;SDS011;18431;45.580;-122.680;2022-08-19T07:36:42;1.70;;;1.60;;
31866;SDS011;18431;45.580;-122.680;2022-08-19T07:39:17;1.65;;;1.55;;
31866;SDS011;18431;45.580;-122.680;2022-08-19T07:41:48;1.72;;;1.62;;
31866;SDS011;18431;45.580;-122.680;2022-08-19T07:44:20;3.30;;;1.72;;
31866;SDS011;18431;45.580;-122.680;2022-08-19T07:46:52;1.35;;;1.32;;
31866;SDS011;18431;45.580;-122.680;2022-08-19T07:49:23;1.65;;;1.55;;
31866;SDS011;18431;45.580;-122.680;2022-08-19T07:51:54;1.77;;;1.67;;
31866;SDS011;18431;45.580;-122.680;2022-08-19T07:54:25;1.87;;;1.72;;
31866;SDS011;18431;45.580;-122.680;2022-08-19T07:56:57;1.60;;;1.42;;
31866;SDS011;18431;45.580;-122.680;2022-08-19T07:59:27;1.82;;;1.45;;
31866;SDS011;18431;45.580;-122.680;2022-08-19T08:01:59;1.50;;;1.40;;
31866;SDS011;18431;45.580;-122.680;2022-08-19T08:04:29;1.50;;;1.40;;
31866;SDS011;18431;45.580;-122.680;2022-08-19T08:07:17;1.65;;;1.55;;
31866;SDS011;18431;45.580;-122.680;2022-08-19T08:10:05;1.60;;;1.50;;
31866;SDS011;18431;45.580;-122.680;2022-08-19T08:12:38;1.47;;;1.37;;
31866;SDS011;18431;45.580;-122.680;2022-08-19T08:15:13;1.62;;;1.52;;
31866;SDS011;18431;45.580;-122.680;2022-08-19T08:17:44;1.37;;;1.30;;
31866;SDS011;18431;45.580;-122.680;2022-08-19T08:20:14;1.50;;;1.40;;
31866;SDS011;18431;45.580;-122.680;2022-08-19T08:22:45;1.80;;;1.65;;
31866;SDS011;18431;45.580;-122.680;2022-08-19T08:25:33;1.50;;;1.40;;
31866;SDS011;18431;45.580;-122.680;2022-08-19T08:28:05;1.90;;;1.70;;
31866;SDS011;18431;45.580;-122.680;2022-08-19T08:30:36;1.60;;;1.50;;
31866;SDS011;18431;45.580;-122.680;2022-08-19T08:33:09;1.62;;;1.52;;
31866;SDS011;18431;45.580;-122.680;2022-08-19T08:35:38;1.50;;;1.40;;
31866;SDS011;18431;45.580;-122.680;2022-08-19T08:38:13;1.60;;;1.50;;
31866;SDS011;18431;45.580;-122.680;2022-08-19T08:40:47;1.35;;;1.30;;
31866;SDS011;18431;45.580;-122.680;2022-08-19T08:43:30;1.70;;;1.60;;
31866;SDS011;18431;45.580;-122.680;2022-08-19T08:46:07;1.37;;;1.37;;
31866;SDS011;18431;45.580;-122.680;2022-08-19T08:51:42;1.70;;;1.60;;
31866;SDS011;18431;45.580;-122.680;2022-08-19T08:54:13;1.70;;;1.60;;
31866;SDS011;18431;45.580;-122.680;2022-08-19T08:56:45;1.60;;;1.50;;
31866;SDS011;18431;45.580;-122.680;2022-08-19T08:59:18;1.70;;;1.60;;
31866;SDS011;18431;45.580;-122.680;2022-08-19T09:01:54;1.57;;;1.47;;
31866;SDS011;18431;45.580;-122.680;2022-08-19T09:04:24;1.62;;;1.52;;
31866;SDS011;18431;45.580;-122.680;2022-08-19T09:09:46;1.82;;;1.57;;
31866;SDS011;18431;45.580;-122.680;2022-08-19T09:12:24;1.55;;;1.45;;
31866;SDS011;18431;45.580;-122.680;2022-08-19T09:14:57;1.70;;;1.60;;
31866;SDS011;18431;45.580;-122.680;2022-08-19T09:17:32;1.67;;;1.57;;
31866;SDS011;18431;45.580;-122.680;2022-08-19T09:20:04;1.60;;;1.50;;
31866;SDS011;18431;45.580;-122.680;2022-08-19T09:22:36;1.72;;;1.62;;
31866;SDS011;18431;45.580;-122.680;2022-08-19T09:25:07;1.70;;;1.60;;
31866;SDS011;18431;45.580;-122.680;2022-08-19T09:27:39;1.70;;;1.60;;
31866;SDS011;18431;45.580;-122.680;2022-08-19T09:30:15;1.45;;;1.35;;
31866;SDS011;18431;45.580;-122.680;2022-08-19T09:32:41;1.52;;;1.47;;
31866;SDS011;18431;45.580;-122.680;2022-08-19T09:35:12;1.87;;;1.70;;
31866;SDS011;18431;45.580;-122.680;2022-08-19T09:37:42;1.57;;;1.47;;
31866;SDS011;18431;45.580;-122.680;2022-08-19T09:40:12;1.70;;;1.60;;
31866;SDS011;18431;45.580;-122.680;2022-08-19T09:42:42;1.60;;;1.50;;
31866;SDS011;18431;45.580;-122.680;2022-08-19T09:45:14;2.22;;;1.80;;
31866;SDS011;18431;45.580;-122.680;2022-08-19T09:47:48;1.77;;;1.67;;
31866;SDS011;18431;45.580;-122.680;2022-08-19T09:50:20;1.55;;;1.45;;
31866;SDS011;18431;45.580;-122.680;2022-08-19T09:55:44;1.45;;;1.40;;
31866;SDS011;18431;45.580;-122.680;2022-08-19T09:58:14;1.70;;;1.60;;
31866;SDS011;18431;45.580;-122.680;2022-08-19T10:00:43;1.62;;;1.52;;
31866;SDS011;18431;45.580;-122.680;2022-08-19T10:03:13;1.57;;;1.47;;
31866;SDS011;18431;45.580;-122.680;2022-08-19T10:05:43;1.60;;;1.50;;
31866;SDS011;18431;45.580;-122.680;2022-08-19T10:08:17;1.45;;;1.37;;
31866;SDS011;18431;45.580;-122.680;2022-08-19T10:10:48;1.60;;;1.50;;
31866;SDS011;18431;45.580;-122.680;2022-08-19T10:13:19;1.30;;;1.20;;
31866;SDS011;18431;45.580;-122.680;2022-08-19T10:15:52;1.52;;;1.42;;
31866;SDS011;18431;45.580;-122.680;2022-08-19T10:18:23;1.80;;;1.70;;
31866;SDS011;18431;45.580;-122.680;2022-08-19T10:21:01;1.47;;;1.37;;
31866;SDS011;18431;45.580;-122.680;2022-08-19T10:23:26;1.75;;;1.42;;
31866;SDS011;18431;45.580;-122.680;2022-08-19T10:25:59;1.62;;;1.52;;
31866;SDS011;18431;45.580;-122.680;2022-08-19T10:28:28;1.50;;;1.40;;
31866;SDS011;18431;45.580;-122.680;2022-08-19T10:31:03;1.40;;;1.30;;
31866;SDS011;18431;45.580;-122.680;2022-08-19T10:33:35;1.70;;;1.60;;
31866;SDS011;18431;45.580;-122.680;2022-08-19T10:36:09;1.27;;;1.17;;
31866;SDS011;18431;45.580;-122.680;2022-08-19T10:38:44;1.45;;;1.32;;
31866;SDS011;18431;45.580;-122.680;2022-08-19T10:41:15;1.60;;;1.50;;
31866;SDS011;18431;45.580;-122.680;2022-08-19T10:43:45;1.50;;;1.40;;
31866;SDS011;18431;45.580;-122.680;2022-08-19T10:46:15;1.37;;;1.27;;
31866;SDS011;18431;45.580;-122.680;2022-08-19T10:48:45;1.35;;;1.25;;
31866;SDS011;18431;45.580;-122.680;2022-08-19T10:51:16;1.60;;;1.50;;
31866;SDS011;18431;45.580;-122.680;2022-08-19T10:54:04;3.05;;;1.30;;
31866;SDS011;18431;45.580;-122.680;2022-08-19T10:56:34;1.25;;;1.17;;
31866;SDS011;18431;45.580;-122.680;2022-08-19T10:59:23;1.50;;;1.40;;
31866;SDS011;18431;45.580;-122.680;2022-08-19T11:01:59;1.40;;;1.30;;
31866;SDS011;18431;45.580;-122.680;2022-08-19T11:04:31;1.25;;;1.15;;
31866;SDS011;18431;45.580;-122.680;2022-08-19T11:07:00;1.50;;;1.40;;
31866;SDS011;18431;45.580;-122.680;2022-08-19T11:09:31;0.93;;;0.93;;
31866;SDS011;18431;45.580;-122.680;2022-08-19T11:12:02;1.30;;;1.20;;
31866;SDS011;18431;45.580;-122.680;2022-08-19T11:14:33;1.15;;;1.05;;
31866;SDS011;18431;45.580;-122.680;2022-08-19T11:17:03;1.42;;;1.32;;
31866;SDS011;18431;45.580;-122.680;2022-08-19T11:19:34;1.77;;;1.25;;
31866;SDS011;18431;45.580;-122.680;2022-08-19T11:22:06;1.35;;;1.25;;
31866;SDS011;18431;45.580;-122.680;2022-08-19T11:24:36;1.50;;;1.40;;
31866;SDS011;18431;45.580;-122.680;2022-08-19T11:27:07;1.22;;;1.20;;
31866;SDS011;18431;45.580;-122.680;2022-08-19T11:29:38;1.50;;;1.40;;
31866;SDS011;18431;45.580;-122.680;2022-08-19T11:32:08;1.15;;;1.07;;
31866;SDS011;18431;45.580;-122.680;2022-08-19T11:34:40;1.47;;;1.37;;
31866;SDS011;18431;45.580;-122.680;2022-08-19T11:37:09;1.27;;;1.17;;
31866;SDS011;18431;45.580;-122.680;2022-08-19T11:39:39;1.15;;;1.10;;
31866;SDS011;18431;45.580;-122.680;2022-08-19T11:42:09;1.02;;;1.02;;
31866;SDS011;18431;45.580;-122.680;2022-08-19T11:44:57;1.12;;;1.10;;
31866;SDS011;18431;45.580;-122.680;2022-08-19T11:47:28;1.20;;;1.10;;
31866;SDS011;18431;45.580;-122.680;2022-08-19T11:49:59;1.27;;;1.20;;
31866;SDS011;18431;45.580;-122.680;2022-08-19T11:52:29;1.45;;;1.10;;
31866;SDS011;18431;45.580;-122.680;2022-08-19T11:54:59;1.10;;;1.10;;
31866;SDS011;18431;45.580;-122.680;2022-08-19T11:57:30;1.00;;;1.00;;
31866;SDS011;18431;45.580;-122.680;2022-08-19T12:00:00;1.10;;;0.98;;
31866;SDS011;18431;45.580;-122.680;2022-08-19T12:02:30;1.10;;;1.00;;
31866;SDS011;18431;45.580;-122.680;2022-08-19T12:05:00;0.95;;;0.93;;
31866;SDS011;18431;45.580;-122.680;2022-08-19T12:07:30;1.20;;;1.10;;
31866;SDS011;18431;45.580;-122.680;2022-08-19T12:10:01;1.10;;;1.00;;
31866;SDS011;18431;45.580;-122.680;2022-08-19T12:12:31;1.10;;;1.00;;
31866;SDS011;18431;45.580;-122.680;2022-08-19T12:15:01;1.07;;;1.00;;
31866;SDS011;18431;45.580;-122.680;2022-08-19T12:17:32;1.27;;;1.17;;
31866;SDS011;18431;45.580;-122.680;2022-08-19T12:20:02;1.15;;;1.10;;
31866;SDS011;18431;45.580;-122.680;2022-08-19T12:22:33;1.30;;;1.20;;
31866;SDS011;18431;45.580;-122.680;2022-08-19T12:25:04;1.05;;;1.05;;
31866;SDS011;18431;45.580;-122.680;2022-08-19T12:27:34;0.98;;;0.98;;
31866;SDS011;18431;45.580;-122.680;2022-08-19T12:30:05;1.00;;;1.00;;
31866;SDS011;18431;45.580;-122.680;2022-08-19T12:35:24;0.90;;;0.90;;
31866;SDS011;18431;45.580;-122.680;2022-08-19T12:37:54;1.10;;;1.00;;
31866;SDS011;18431;45.580;-122.680;2022-08-19T12:40:25;0.80;;;0.80;;
31866;SDS011;18431;45.580;-122.680;2022-08-19T12:42:55;0.80;;;0.80;;
31866;SDS011;18431;45.580;-122.680;2022-08-19T12:45:26;1.27;;;1.17;;
31866;SDS011;18431;45.580;-122.680;2022-08-19T12:47:57;0.90;;;0.90;;
31866;SDS011;18431;45.580;-122.680;2022-08-19T12:50:27;0.98;;;0.98;;
31866;SDS011;18431;45.580;-122.680;2022-08-19T12:52:57;1.10;;;0.80;;
31866;SDS011;18431;45.580;-122.680;2022-08-19T12:55:31;0.80;;;0.80;;
31866;SDS011;18431;45.580;-122.680;2022-08-19T12:58:00;1.20;;;1.10;;
31866;SDS011;18431;45.580;-122.680;2022-08-19T13:00:30;1.05;;;1.00;;
31866;SDS011;18431;45.580;-122.680;2022-08-19T13:03:00;1.10;;;1.02;;
31866;SDS011;18431;45.580;-122.680;2022-08-19T13:05:31;0.90;;;0.90;;
31866;SDS011;18431;45.580;-122.680;2022-08-19T13:08:01;1.30;;;1.20;;
31866;SDS011;18431;45.580;-122.680;2022-08-19T13:10:32;1.12;;;1.10;;
31866;SDS011;18431;45.580;-122.680;2022-08-19T13:13:05;1.00;;;1.00;;
31866;SDS011;18431;45.580;-122.680;2022-08-19T13:15:38;0.85;;;0.85;;
31866;SDS011;18431;45.580;-122.680;2022-08-19T13:18:08;0.95;;;0.90;;
31866;SDS011;18431;45.580;-122.680;2022-08-19T13:20:39;0.93;;;0.93;;
31866;SDS011;18431;45.580;-122.680;2022-08-19T13:23:09;0.95;;;0.95;;
31866;SDS011;18431;45.580;-122.680;2022-08-19T13:25:41;0.80;;;0.80;;
31866;SDS011;18431;45.580;-122.680;2022-08-19T13:28:11;0.70;;;0.70;;
31866;SDS011;18431;45.580;-122.680;2022-08-19T13:30:41;0.70;;;0.70;;
31866;SDS011;18431;45.580;-122.680;2022-08-19T13:33:30;0.65;;;0.65;;
31866;SDS011;18431;45.580;-122.680;2022-08-19T13:36:00;0.90;;;0.90;;
31866;SDS011;18431;45.580;-122.680;2022-08-19T13:38:32;1.32;;;0.80;;
31866;SDS011;18431;45.580;-122.680;2022-08-19T13:41:05;0.72;;;0.72;;
31866;SDS011;18431;45.580;-122.680;2022-08-19T13:43:35;1.67;;;0.93;;
31866;SDS011;18431;45.580;-122.680;2022-08-19T13:46:08;0.80;;;0.80;;
31866;SDS011;18431;45.580;-122.680;2022-08-19T13:48:41;0.70;;;0.70;;
31866;SDS011;18431;45.580;-122.680;2022-08-19T13:54:00;1.02;;;0.75;;
31866;SDS011;18431;45.580;-122.680;2022-08-19T13:56:30;0.82;;;0.80;;
31866;SDS011;18431;45.580;-122.680;2022-08-19T13:58:59;0.98;;;0.98;;
31866;SDS011;18431;45.580;-122.680;2022-08-19T14:01:29;1.62;;;0.60;;
31866;SDS011;18431;45.580;-122.680;2022-08-19T14:03:59;1.77;;;0.88;;
31866;SDS011;18431;45.580;-122.680;2022-08-19T14:06:29;1.32;;;0.60;;
31866;SDS011;18431;45.580;-122.680;2022-08-19T14:09:01;0.60;;;0.60;;
31866;SDS011;18431;45.580;-122.680;2022-08-19T14:11:30;0.70;;;0.70;;
31866;SDS011;18431;45.580;-122.680;2022-08-19T14:14:00;0.60;;;0.60;;
31866;SDS011;18431;45.580;-122.680;2022-08-19T14:16:30;0.72;;;0.62;;
31866;SDS011;18431;45.580;-122.680;2022-08-19T14:18:59;1.47;;;0.70;;
31866;SDS011;18431;45.580;-122.680;2022-08-19T14:21:29;1.02;;;0.90;;
31866;SDS011;18431;45.580;-122.680;2022-08-19T14:23:58;0.88;;;0.70;;
31866;SDS011;18431;45.580;-122.680;2022-08-19T14:26:28;0.78;;;0.55;;
31866;SDS011;18431;45.580;-122.680;2022-08-19T14:28:58;0.65;;;0.65;;
31866;SDS011;18431;45.580;-122.680;2022-08-19T14:31:28;0.80;;;0.80;;
31866;SDS011;18431;45.580;-122.680;2022-08-19T14:33:57;0.80;;;0.80;;
31866;SDS011;18431;45.580;-122.680;2022-08-19T14:36:27;0.70;;;0.68;;
31866;SDS011;18431;45.580;-122.680;2022-08-19T14:38:58;0.93;;;0.90;;
31866;SDS011;18431;45.580;-122.680;2022-08-19T14:41:28;0.70;;;0.70;;
31866;SDS011;18431;45.580;-122.680;2022-08-19T14:44:00;0.65;;;0.65;;
31866;SDS011;18431;45.580;-122.680;2022-08-19T14:46:30;0.60;;;0.60;;
31866;SDS011;18431;45.580;-122.680;2022-08-19T14:49:00;0.82;;;0.82;;
31866;SDS011;18431;45.580;-122.680;2022-08-19T14:51:29;0.72;;;0.68;;
31866;SDS011;18431;45.580;-122.680;2022-08-19T14:53:59;0.93;;;0.57;;